sensor_id;sensor_type;location;lat;lon;timestamp;temperature;humidity
39033;DHT22;24794;51.982;5.878;2023-08-01T00:00:25;17.10;99.90
39033;DHT22;24794;51.982;5.878;2023-08-01T00:01:26;17.10;99.90
39033;DHT22;24794;51.982;5.878;2023-08-01T00:02:26;17.10;99.90
39033;DHT22;24794;51.982;5.878;2023-08-01T00:03:27;17.10;99.90
39033;DHT22;24794;51.982;5.878;2023-08-01T00:04:27;17.10;99.90
39033;DHT22;24794;51.982;5.878;2023-08-01T00:05:28;17.00;99.90
39033;DHT22;24794;51.982;5.878;2023-08-01T00:06:28;17.00;99.90
39033;DHT22;24794;51.982;5.878;2023-08-01T00:07:29;17.00;99.90
39033;DHT22;24794;51.982;5.878;2023-08-01T00:08:29;17.00;99.90
39033;DHT22;24794;51.982;5.878;2023-08-01T00:09:30;17.00;99.90
39033;DHT22;24794;51.982;5.878;2023-08-01T00:10:30;17.00;99.90
39033;DHT22;24794;51.982;5.878;2023-08-01T00:11:31;17.00;99.90
39033;DHT22;24794;51.982;5.878;2023-08-01T00:12:31;17.00;99.90
39033;DHT22;24794;51.982;5.878;2023-08-01T00:13:32;17.00;99.90
39033;DHT22;24794;51.982;5.878;2023-08-01T00:14:32;17.00;99.90
39033;DHT22;24794;51.982;5.878;2023-08-01T00:15:33;17.00;99.90
39033;DHT22;24794;51.982;5.878;2023-08-01T00:16:34;17.00;99.90
39033;DHT22;24794;51.982;5.878;2023-08-01T00:17:35;17.00;99.90
39033;DHT22;24794;51.982;5.878;2023-08-01T00:18:36;17.00;99.90
39033;DHT22;24794;51.982;5.878;2023-08-01T00:19:36;17.00;99.90
39033;DHT22;24794;51.982;5.878;2023-08-01T00:20:37;17.00;99.90
39033;DHT22;24794;51.982;5.878;2023-08-01T00:21:39;17.00;99.90
39033;DHT22;24794;51.982;5.878;2023-08-01T00:22:40;17.00;99.90
39033;DHT22;24794;51.982;5.878;2023-08-01T00:23:41;17.00;99.90
39033;DHT22;24794;51.982;5.878;2023-08-01T00:24:41;17.00;99.90
39033;DHT22;24794;51.982;5.878;2023-08-01T00:25:42;17.00;99.90
39033;DHT22;24794;51.982;5.878;2023-08-01T00:26:42;17.00;99.90
39033;DHT22;24794;51.982;5.878;2023-08-01T00:27:43;17.00;99.90
39033;DHT22;24794;51.982;5.878;2023-08-01T00:28:43;16.90;99.90
39033;DHT22;24794;51.982;5.878;2023-08-01T00:29:44;16.90;99.90
39033;DHT22;24794;51.982;5.878;2023-08-01T00:30:45;16.90;99.90
39033;DHT22;24794;51.982;5.878;2023-08-01T00:31:45;16.90;99.90
39033;DHT22;24794;51.982;5.878;2023-08-01T00:32:46;16.90;99.90
39033;DHT22;24794;51.982;5.878;2023-08-01T00:33:46;16.90;99.90
39033;DHT22;24794;51.982;5.878;2023-08-01T00:34:47;16.90;99.90
39033;DHT22;24794;51.982;5.878;2023-08-01T00:35:53;16.80;99.90
39033;DHT22;24794;51.982;5.878;2023-08-01T00:36:54;16.80;99.90
39033;DHT22;24794;51.982;5.878;2023-08-01T00:37:55;16.80;99.90
39033;DHT22;24794;51.982;5.878;2023-08-01T00:38:55;16.80;99.90
39033;DHT22;24794;51.982;5.878;2023-08-01T00:39:56;16.80;99.90
39033;DHT22;24794;51.982;5.878;2023-08-01T00:40:56;16.80;99.90
39033;DHT22;24794;51.982;5.878;2023-08-01T00:41:57;16.80;99.90
39033;DHT22;24794;51.982;5.878;2023-08-01T00:42:57;16.80;99.90
39033;DHT22;24794;51.982;5.878;2023-08-01T00:43:59;16.80;99.90
39033;DHT22;24794;51.982;5.878;2023-08-01T00:44:59;16.80;99.90
39033;DHT22;24794;51.982;5.878;2023-08-01T00:46:03;16.80;99.90
39033;DHT22;24794;51.982;5.878;2023-08-01T00:47:04;16.70;99.90
39033;DHT22;24794;51.982;5.878;2023-08-01T00:48:05;16.80;99.90
39033;DHT22;24794;51.982;5.878;2023-08-01T00:49:06;16.70;99.90
39033;DHT22;24794;51.982;5.878;2023-08-01T00:50:08;16.70;99.90
39033;DHT22;24794;51.982;5.878;2023-08-01T00:51:09;16.70;99.90
39033;DHT22;24794;51.982;5.878;2023-08-01T00:52:10;16.80;99.90
39033;DHT22;24794;51.982;5.878;2023-08-01T00:53:12;16.70;99.90
39033;DHT22;24794;51.982;5.878;2023-08-01T00:54:12;16.70;99.90
39033;DHT22;24794;51.982;5.878;2023-08-01T00:55:14;16.70;99.90
39033;DHT22;24794;51.982;5.878;2023-08-01T00:56:16;16.70;99.90
39033;DHT22;24794;51.982;5.878;2023-08-01T00:57:17;16.70;99.90
39033;DHT22;24794;51.982;5.878;2023-08-01T00:58:18;16.70;99.90
39033;DHT22;24794;51.982;5.878;2023-08-01T00:59:18;16.70;99.90
39033;DHT22;24794;51.982;5.878;2023-08-01T01:00:19;16.80;99.90
39033;DHT22;24794;51.982;5.878;2023-08-01T01:01:19;16.80;99.90
39033;DHT22;24794;51.982;5.878;2023-08-01T01:02:20;16.80;99.90
39033;DHT22;24794;51.982;5.878;2023-08-01T01:03:20;16.80;99.90
39033;DHT22;24794;51.982;5.878;2023-08-01T01:04:21;16.80;99.90
39033;DHT22;24794;51.982;5.878;2023-08-01T01:05:24;16.80;99.90
39033;DHT22;24794;51.982;5.878;2023-08-01T01:06:37;16.80;99.90
39033;DHT22;24794;51.982;5.878;2023-08-01T01:07:39;16.80;99.90
39033;DHT22;24794;51.982;5.878;2023-08-01T01:08:40;16.80;99.90
39033;DHT22;24794;51.982;5.878;2023-08-01T01:09:41;16.70;99.90
39033;DHT22;24794;51.982;5.878;2023-08-01T01:10:42;16.80;99.90
39033;DHT22;24794;51.982;5.878;2023-08-01T01:11:43;16.80;99.90
39033;DHT22;24794;51.982;5.878;2023-08-01T01:12:43;16.80;99.90
39033;DHT22;24794;51.982;5.878;2023-08-01T01:13:44;16.80;99.90
39033;DHT22;24794;51.982;5.878;2023-08-01T01:14:44;16.80;99.90
39033;DHT22;24794;51.982;5.878;2023-08-01T01:15:45;16.80;99.90
39033;DHT22;24794;51.982;5.878;2023-08-01T01:16:45;16.80;99.90
39033;DHT22;24794;51.982;5.878;2023-08-01T01:17:46;16.80;99.90
39033;DHT22;24794;51.982;5.878;2023-08-01T01:18:46;16.80;99.90
39033;DHT22;24794;51.982;5.878;2023-08-01T01:19:47;16.80;99.90
39033;DHT22;24794;51.982;5.878;2023-08-01T01:20:47;16.80;99.90
39033;DHT22;24794;51.982;5.878;2023-08-01T01:21:48;16.80;99.90
39033;DHT22;24794;51.982;5.878;2023-08-01T01:22:51;16.80;99.90
39033;DHT22;24794;51.982;5.878;2023-08-01T01:23:52;16.80;99.90
39033;DHT22;24794;51.982;5.878;2023-08-01T01:24:54;16.80;99.90
39033;DHT22;24794;51.982;5.878;2023-08-01T01:25:56;16.70;99.90
39033;DHT22;24794;51.982;5.878;2023-08-01T01:26:57;16.70;99.90
39033;DHT22;24794;51.982;5.878;2023-08-01T01:28:03;16.70;99.90
39033;DHT22;24794;51.982;5.878;2023-08-01T01:29:05;16.70;99.90
39033;DHT22;24794;51.982;5.878;2023-08-01T01:30:06;16.70;99.90
39033;DHT22;24794;51.982;5.878;2023-08-01T01:31:07;16.70;99.90
39033;DHT22;24794;51.982;5.878;2023-08-01T01:32:08;16.70;99.90
39033;DHT22;24794;51.982;5.878;2023-08-01T01:33:10;16.70;99.90
39033;DHT22;24794;51.982;5.878;2023-08-01T01:34:10;16.70;99.90
39033;DHT22;24794;51.982;5.878;2023-08-01T01:35:11;16.70;99.90
39033;DHT22;24794;51.982;5.878;2023-08-01T01:36:12;16.70;99.90
39033;DHT22;24794;51.982;5.878;2023-08-01T01:37:12;16.70;99.90
39033;DHT22;24794;51.982;5.878;2023-08-01T01:38:13;16.70;99.90
39033;DHT22;24794;51.982;5.878;2023-08-01T01:39:13;16.70;99.90
39033;DHT22;24794;51.982;5.878;2023-08-01T01:40:14;16.70;99.90
39033;DHT22;24794;51.982;5.878;2023-08-01T01:41:14;16.60;99.90
39033;DHT22;24794;51.982;5.878;2023-08-01T01:42:15;16.60;99.90
39033;DHT22;24794;51.982;5.878;2023-08-01T01:43:15;16.60;99.90
39033;DHT22;24794;51.982;5.878;2023-08-01T01:44:16;16.60;99.90
39033;DHT22;24794;51.982;5.878;2023-08-01T01:45:17;16.60;99.90
39033;DHT22;24794;51.982;5.878;2023-08-01T01:46:17;16.60;99.90
39033;DHT22;24794;51.982;5.878;2023-08-01T01:47:18;16.60;99.90
39033;DHT22;24794;51.982;5.878;2023-08-01T01:48:18;16.60;99.90
39033;DHT22;24794;51.982;5.878;2023-08-01T01:49:19;16.60;99.90
39033;DHT22;24794;51.982;5.878;2023-08-01T01:50:19;16.60;99.90
39033;DHT22;24794;51.982;5.878;2023-08-01T01:51:21;16.60;99.90
39033;DHT22;24794;51.982;5.878;2023-08-01T01:52:21;16.60;99.90
39033;DHT22;24794;51.982;5.878;2023-08-01T01:53:22;16.60;99.90
39033;DHT22;24794;51.982;5.878;2023-08-01T01:54:23;16.60;99.90
39033;DHT22;24794;51.982;5.878;2023-08-01T01:55:23;16.60;99.90
39033;DHT22;24794;51.982;5.878;2023-08-01T01:56:24;16.60;99.90
39033;DHT22;24794;51.982;5.878;2023-08-01T01:57:24;16.60;99.90
39033;DHT22;24794;51.982;5.878;2023-08-01T01:58:25;16.60;99.90
39033;DHT22;24794;51.982;5.878;2023-08-01T01:59:25;16.60;99.90
39033;DHT22;24794;51.982;5.878;2023-08-01T02:00:26;16.60;99.90
39033;DHT22;24794;51.982;5.878;2023-08-01T02:01:26;16.50;99.90
39033;DHT22;24794;51.982;5.878;2023-08-01T02:02:27;16.60;99.90
39033;DHT22;24794;51.982;5.878;2023-08-01T02:03:27;16.60;99.90
39033;DHT22;24794;51.982;5.878;2023-08-01T02:04:28;16.50;99.90
39033;DHT22;24794;51.982;5.878;2023-08-01T02:05:29;16.50;99.90
39033;DHT22;24794;51.982;5.878;2023-08-01T02:06:30;16.50;99.90
39033;DHT22;24794;51.982;5.878;2023-08-01T02:07:31;16.50;99.90
39033;DHT22;24794;51.982;5.878;2023-08-01T02:08:32;16.50;99.90
39033;DHT22;24794;51.982;5.878;2023-08-01T02:09:33;16.60;99.90
39033;DHT22;24794;51.982;5.878;2023-08-01T02:10:34;16.50;99.90
39033;DHT22;24794;51.982;5.878;2023-08-01T02:11:34;16.50;99.90
39033;DHT22;24794;51.982;5.878;2023-08-01T02:12:35;16.40;99.90
39033;DHT22;24794;51.982;5.878;2023-08-01T02:13:36;16.40;99.90
39033;DHT22;24794;51.982;5.878;2023-08-01T02:14:36;16.40;99.90
39033;DHT22;24794;51.982;5.878;2023-08-01T02:15:37;16.40;99.90
39033;DHT22;24794;51.982;5.878;2023-08-01T02:16:37;16.40;99.90
39033;DHT22;24794;51.982;5.878;2023-08-01T02:17:38;16.40;99.90
39033;DHT22;24794;51.982;5.878;2023-08-01T02:18:39;16.40;99.90
39033;DHT22;24794;51.982;5.878;2023-08-01T02:19:39;16.40;99.90
39033;DHT22;24794;51.982;5.878;2023-08-01T02:20:40;16.40;99.90
39033;DHT22;24794;51.982;5.878;2023-08-01T02:21:40;16.30;99.90
39033;DHT22;24794;51.982;5.878;2023-08-01T02:22:41;16.30;99.90
39033;DHT22;24794;51.982;5.878;2023-08-01T02:23:41;16.30;99.90
39033;DHT22;24794;51.982;5.878;2023-08-01T02:24:42;16.30;99.90
39033;DHT22;24794;51.982;5.878;2023-08-01T02:25:43;16.30;99.90
39033;DHT22;24794;51.982;5.878;2023-08-01T02:26:43;16.30;99.90
39033;DHT22;24794;51.982;5.878;2023-08-01T02:27:44;16.30;99.90
39033;DHT22;24794;51.982;5.878;2023-08-01T02:28:44;16.30;99.90
39033;DHT22;24794;51.982;5.878;2023-08-01T02:29:45;16.30;99.90
39033;DHT22;24794;51.982;5.878;2023-08-01T02:30:45;16.30;99.90
39033;DHT22;24794;51.982;5.878;2023-08-01T02:31:46;16.20;99.90
39033;DHT22;24794;51.982;5.878;2023-08-01T02:32:47;16.20;99.90
39033;DHT22;24794;51.982;5.878;2023-08-01T02:33:47;16.20;99.90
39033;DHT22;24794;51.982;5.878;2023-08-01T02:34:48;16.20;99.90
39033;DHT22;24794;51.982;5.878;2023-08-01T02:35:48;16.20;99.90
39033;DHT22;24794;51.982;5.878;2023-08-01T02:36:49;16.20;99.90
39033;DHT22;24794;51.982;5.878;2023-08-01T02:37:49;16.30;99.90
39033;DHT22;24794;51.982;5.878;2023-08-01T02:38:50;16.20;99.90
39033;DHT22;24794;51.982;5.878;2023-08-01T02:39:50;16.20;99.90
39033;DHT22;24794;51.982;5.878;2023-08-01T02:40:51;16.20;99.90
39033;DHT22;24794;51.982;5.878;2023-08-01T02:41:51;16.20;99.90
39033;DHT22;24794;51.982;5.878;2023-08-01T02:42:52;16.20;99.90
39033;DHT22;24794;51.982;5.878;2023-08-01T02:43:52;16.20;99.90
39033;DHT22;24794;51.982;5.878;2023-08-01T02:44:53;16.20;99.90
39033;DHT22;24794;51.982;5.878;2023-08-01T02:45:53;16.10;99.90
39033;DHT22;24794;51.982;5.878;2023-08-01T02:46:54;16.20;99.90
39033;DHT22;24794;51.982;5.878;2023-08-01T02:47:54;16.20;99.90
39033;DHT22;24794;51.982;5.878;2023-08-01T02:48:55;16.10;99.90
39033;DHT22;24794;51.982;5.878;2023-08-01T02:49:55;16.10;99.90
39033;DHT22;24794;51.982;5.878;2023-08-01T02:50:56;16.10;99.90
39033;DHT22;24794;51.982;5.878;2023-08-01T02:51:56;16.10;99.90
39033;DHT22;24794;51.982;5.878;2023-08-01T02:52:57;16.10;99.90
39033;DHT22;24794;51.982;5.878;2023-08-01T02:53:57;16.10;99.90
39033;DHT22;24794;51.982;5.878;2023-08-01T02:54:58;16.10;99.90
39033;DHT22;24794;51.982;5.878;2023-08-01T02:55:58;16.10;99.90
39033;DHT22;24794;51.982;5.878;2023-08-01T02:56:59;16.10;99.90
39033;DHT22;24794;51.982;5.878;2023-08-01T02:57:59;16.10;99.90
39033;DHT22;24794;51.982;5.878;2023-08-01T02:59:00;16.10;99.90
39033;DHT22;24794;51.982;5.878;2023-08-01T03:00:00;16.10;99.90
39033;DHT22;24794;51.982;5.878;2023-08-01T03:01:08;16.10;99.90
39033;DHT22;24794;51.982;5.878;2023-08-01T03:02:13;16.10;99.90
39033;DHT22;24794;51.982;5.878;2023-08-01T03:03:14;16.10;99.90
39033;DHT22;24794;51.982;5.878;2023-08-01T03:04:14;16.10;99.90
39033;DHT22;24794;51.982;5.878;2023-08-01T03:05:15;16.00;99.90
39033;DHT22;24794;51.982;5.878;2023-08-01T03:06:15;16.00;99.90
39033;DHT22;24794;51.982;5.878;2023-08-01T03:07:16;16.00;99.90
39033;DHT22;24794;51.982;5.878;2023-08-01T03:08:16;16.00;99.90
39033;DHT22;24794;51.982;5.878;2023-08-01T03:09:17;16.00;99.90
39033;DHT22;24794;51.982;5.878;2023-08-01T03:10:18;16.00;99.90
39033;DHT22;24794;51.982;5.878;2023-08-01T03:11:19;16.00;99.90
39033;DHT22;24794;51.982;5.878;2023-08-01T03:12:19;16.00;99.90
39033;DHT22;24794;51.982;5.878;2023-08-01T03:13:20;16.00;99.90
39033;DHT22;24794;51.982;5.878;2023-08-01T03:14:20;16.00;99.90
39033;DHT22;24794;51.982;5.878;2023-08-01T03:15:21;16.00;99.90
39033;DHT22;24794;51.982;5.878;2023-08-01T03:16:21;16.00;99.90
39033;DHT22;24794;51.982;5.878;2023-08-01T03:17:22;16.00;99.90
39033;DHT22;24794;51.982;5.878;2023-08-01T03:18:22;16.00;99.90
39033;DHT22;24794;51.982;5.878;2023-08-01T03:19:23;16.00;99.90
39033;DHT22;24794;51.982;5.878;2023-08-01T03:20:24;16.00;99.90
39033;DHT22;24794;51.982;5.878;2023-08-01T03:21:25;16.00;99.90
39033;DHT22;24794;51.982;5.878;2023-08-01T03:22:26;16.00;99.90
39033;DHT22;24794;51.982;5.878;2023-08-01T03:23:27;16.10;99.90
39033;DHT22;24794;51.982;5.878;2023-08-01T03:24:27;16.10;99.90
39033;DHT22;24794;51.982;5.878;2023-08-01T03:25:28;16.00;99.90
39033;DHT22;24794;51.982;5.878;2023-08-01T03:26:29;16.10;99.90
39033;DHT22;24794;51.982;5.878;2023-08-01T03:27:29;16.10;99.90
39033;DHT22;24794;51.982;5.878;2023-08-01T03:28:30;16.00;99.90
39033;DHT22;24794;51.982;5.878;2023-08-01T03:29:30;16.10;99.90
39033;DHT22;24794;51.982;5.878;2023-08-01T03:30:32;16.10;99.90
39033;DHT22;24794;51.982;5.878;2023-08-01T03:31:32;16.10;99.90
39033;DHT22;24794;51.982;5.878;2023-08-01T03:32:33;16.10;99.90
39033;DHT22;24794;51.982;5.878;2023-08-01T03:33:33;16.10;99.90
39033;DHT22;24794;51.982;5.878;2023-08-01T03:34:34;16.10;99.90
39033;DHT22;24794;51.982;5.878;2023-08-01T03:35:35;16.10;99.90
39033;DHT22;24794;51.982;5.878;2023-08-01T03:36:35;16.10;99.90
39033;DHT22;24794;51.982;5.878;2023-08-01T03:37:36;16.10;99.90
39033;DHT22;24794;51.982;5.878;2023-08-01T03:38:36;16.10;99.90
39033;DHT22;24794;51.982;5.878;2023-08-01T03:39:37;16.10;99.90
39033;DHT22;24794;51.982;5.878;2023-08-01T03:40:37;16.10;99.90
39033;DHT22;24794;51.982;5.878;2023-08-01T03:41:38;16.20;99.90
39033;DHT22;24794;51.982;5.878;2023-08-01T03:42:39;16.10;99.90
39033;DHT22;24794;51.982;5.878;2023-08-01T03:43:40;16.20;99.90
39033;DHT22;24794;51.982;5.878;2023-08-01T03:44:41;16.20;99.90
39033;DHT22;24794;51.982;5.878;2023-08-01T03:45:41;16.20;99.90
39033;DHT22;24794;51.982;5.878;2023-08-01T03:46:42;16.20;99.90
39033;DHT22;24794;51.982;5.878;2023-08-01T03:47:43;16.20;99.90
39033;DHT22;24794;51.982;5.878;2023-08-01T03:48:43;16.20;99.90
39033;DHT22;24794;51.982;5.878;2023-08-01T03:49:44;16.20;99.90
39033;DHT22;24794;51.982;5.878;2023-08-01T03:50:44;16.20;99.90
39033;DHT22;24794;51.982;5.878;2023-08-01T03:51:45;16.20;99.90
39033;DHT22;24794;51.982;5.878;2023-08-01T03:52:45;16.20;99.90
39033;DHT22;24794;51.982;5.878;2023-08-01T03:53:46;16.20;99.90
39033;DHT22;24794;51.982;5.878;2023-08-01T03:54:48;16.30;99.90
39033;DHT22;24794;51.982;5.878;2023-08-01T03:55:48;16.20;99.90
39033;DHT22;24794;51.982;5.878;2023-08-01T03:56:49;16.30;99.90
39033;DHT22;24794;51.982;5.878;2023-08-01T03:57:49;16.30;99.90
39033;DHT22;24794;51.982;5.878;2023-08-01T03:58:50;16.30;99.90
39033;DHT22;24794;51.982;5.878;2023-08-01T03:59:50;16.30;99.90
39033;DHT22;24794;51.982;5.878;2023-08-01T04:00:51;16.30;99.90
39033;DHT22;24794;51.982;5.878;2023-08-01T04:01:52;16.30;99.90
39033;DHT22;24794;51.982;5.878;2023-08-01T04:02:52;16.30;99.90
39033;DHT22;24794;51.982;5.878;2023-08-01T04:03:52;16.30;99.90
39033;DHT22;24794;51.982;5.878;2023-08-01T04:04:53;16.30;99.90
39033;DHT22;24794;51.982;5.878;2023-08-01T04:05:53;16.30;99.90
39033;DHT22;24794;51.982;5.878;2023-08-01T04:06:54;16.30;99.90
39033;DHT22;24794;51.982;5.878;2023-08-01T04:07:55;16.30;99.90
39033;DHT22;24794;51.982;5.878;2023-08-01T04:08:55;16.30;99.90
39033;DHT22;24794;51.982;5.878;2023-08-01T04:09:56;16.30;99.90
39033;DHT22;24794;51.982;5.878;2023-08-01T04:10:57;16.30;99.90
39033;DHT22;24794;51.982;5.878;2023-08-01T04:11:57;16.30;99.90
39033;DHT22;24794;51.982;5.878;2023-08-01T04:12:58;16.30;99.90
39033;DHT22;24794;51.982;5.878;2023-08-01T04:13:58;16.30;99.90
39033;DHT22;24794;51.982;5.878;2023-08-01T04:15:00;16.30;99.90
39033;DHT22;24794;51.982;5.878;2023-08-01T04:16:00;16.30;99.90
39033;DHT22;24794;51.982;5.878;2023-08-01T04:17:01;16.30;99.90
39033;DHT22;24794;51.982;5.878;2023-08-01T04:18:02;16.30;99.90
39033;DHT22;24794;51.982;5.878;2023-08-01T04:19:02;16.30;99.90
39033;DHT22;24794;51.982;5.878;2023-08-01T04:20:03;16.30;99.90
39033;DHT22;24794;51.982;5.878;2023-08-01T04:21:03;16.30;99.90
39033;DHT22;24794;51.982;5.878;2023-08-01T04:22:04;16.30;99.90
39033;DHT22;24794;51.982;5.878;2023-08-01T04:23:04;16.30;99.90
39033;DHT22;24794;51.982;5.878;2023-08-01T04:24:05;16.30;99.90
39033;DHT22;24794;51.982;5.878;2023-08-01T04:25:06;16.30;99.90
39033;DHT22;24794;51.982;5.878;2023-08-01T04:26:06;16.30;99.90
39033;DHT22;24794;51.982;5.878;2023-08-01T04:27:07;16.30;99.90
39033;DHT22;24794;51.982;5.878;2023-08-01T04:28:08;16.30;99.90
39033;DHT22;24794;51.982;5.878;2023-08-01T04:29:08;16.30;99.90
39033;DHT22;24794;51.982;5.878;2023-08-01T04:30:09;16.30;99.90
39033;DHT22;24794;51.982;5.878;2023-08-01T04:31:10;16.30;99.90
39033;DHT22;24794;51.982;5.878;2023-08-01T04:32:10;16.30;99.90
39033;DHT22;24794;51.982;5.878;2023-08-01T04:33:14;16.30;99.90
39033;DHT22;24794;51.982;5.878;2023-08-01T04:34:14;16.30;99.90
39033;DHT22;24794;51.982;5.878;2023-08-01T04:35:15;16.30;99.90
39033;DHT22;24794;51.982;5.878;2023-08-01T04:36:15;16.30;99.90
39033;DHT22;24794;51.982;5.878;2023-08-01T04:37:16;16.30;99.90
39033;DHT22;24794;51.982;5.878;2023-08-01T04:38:17;16.30;99.90
39033;DHT22;24794;51.982;5.878;2023-08-01T04:39:17;16.30;99.90
39033;DHT22;24794;51.982;5.878;2023-08-01T04:40:18;16.30;99.90
39033;DHT22;24794;51.982;5.878;2023-08-01T04:41:18;16.30;99.90
39033;DHT22;24794;51.982;5.878;2023-08-01T04:42:19;16.30;99.90
39033;DHT22;24794;51.982;5.878;2023-08-01T04:43:19;16.30;99.90
39033;DHT22;24794;51.982;5.878;2023-08-01T04:44:20;16.30;99.90
39033;DHT22;24794;51.982;5.878;2023-08-01T04:45:20;16.30;99.90
39033;DHT22;24794;51.982;5.878;2023-08-01T04:46:21;16.30;99.90
39033;DHT22;24794;51.982;5.878;2023-08-01T04:47:21;16.30;99.90
39033;DHT22;24794;51.982;5.878;2023-08-01T04:48:22;16.30;99.90
39033;DHT22;24794;51.982;5.878;2023-08-01T04:49:22;16.30;99.90
39033;DHT22;24794;51.982;5.878;2023-08-01T04:50:24;16.30;99.90
39033;DHT22;24794;51.982;5.878;2023-08-01T04:51:25;16.30;99.90
39033;DHT22;24794;51.982;5.878;2023-08-01T04:52:25;16.30;99.90
39033;DHT22;24794;51.982;5.878;2023-08-01T04:53:26;16.30;99.90
39033;DHT22;24794;51.982;5.878;2023-08-01T04:54:26;16.30;99.90
39033;DHT22;24794;51.982;5.878;2023-08-01T04:55:27;16.30;99.90
39033;DHT22;24794;51.982;5.878;2023-08-01T04:56:28;16.30;99.90
39033;DHT22;24794;51.982;5.878;2023-08-01T04:57:28;16.30;99.90
39033;DHT22;24794;51.982;5.878;2023-08-01T04:58:29;16.30;99.90
39033;DHT22;24794;51.982;5.878;2023-08-01T04:59:30;16.30;99.90
39033;DHT22;24794;51.982;5.878;2023-08-01T05:00:31;16.30;99.90
39033;DHT22;24794;51.982;5.878;2023-08-01T05:01:31;16.30;99.90
39033;DHT22;24794;51.982;5.878;2023-08-01T05:02:32;16.30;99.90
39033;DHT22;24794;51.982;5.878;2023-08-01T05:03:32;16.30;99.90
39033;DHT22;24794;51.982;5.878;2023-08-01T05:04:33;16.40;99.90
39033;DHT22;24794;51.982;5.878;2023-08-01T05:05:33;16.30;99.90
39033;DHT22;24794;51.982;5.878;2023-08-01T05:06:34;16.30;99.90
39033;DHT22;24794;51.982;5.878;2023-08-01T05:07:35;16.30;99.90
39033;DHT22;24794;51.982;5.878;2023-08-01T05:08:35;16.30;99.90
39033;DHT22;24794;51.982;5.878;2023-08-01T05:09:36;16.30;99.90
39033;DHT22;24794;51.982;5.878;2023-08-01T05:10:36;16.30;99.90
39033;DHT22;24794;51.982;5.878;2023-08-01T05:11:36;16.30;99.90
39033;DHT22;24794;51.982;5.878;2023-08-01T05:12:37;16.30;99.90
39033;DHT22;24794;51.982;5.878;2023-08-01T05:13:37;16.30;99.90
39033;DHT22;24794;51.982;5.878;2023-08-01T05:14:38;16.30;99.90
39033;DHT22;24794;51.982;5.878;2023-08-01T05:15:39;16.30;99.90
39033;DHT22;24794;51.982;5.878;2023-08-01T05:16:39;16.30;99.90
39033;DHT22;24794;51.982;5.878;2023-08-01T05:17:40;16.40;99.90
39033;DHT22;24794;51.982;5.878;2023-08-01T05:18:40;16.30;99.90
39033;DHT22;24794;51.982;5.878;2023-08-01T05:19:41;16.40;99.90
39033;DHT22;24794;51.982;5.878;2023-08-01T05:20:42;16.40;99.90
39033;DHT22;24794;51.982;5.878;2023-08-01T05:21:42;16.40;99.90
39033;DHT22;24794;51.982;5.878;2023-08-01T05:22:43;16.40;99.90
39033;DHT22;24794;51.982;5.878;2023-08-01T05:23:43;16.40;99.90
39033;DHT22;24794;51.982;5.878;2023-08-01T05:24:44;16.40;99.90
39033;DHT22;24794;51.982;5.878;2023-08-01T05:25:45;16.40;99.90
39033;DHT22;24794;51.982;5.878;2023-08-01T05:26:45;16.40;99.90
39033;DHT22;24794;51.982;5.878;2023-08-01T05:27:46;16.40;99.90
39033;DHT22;24794;51.982;5.878;2023-08-01T05:28:46;16.40;99.90
39033;DHT22;24794;51.982;5.878;2023-08-01T05:29:47;16.50;99.90
39033;DHT22;24794;51.982;5.878;2023-08-01T05:30:47;16.40;99.90
39033;DHT22;24794;51.982;5.878;2023-08-01T05:31:48;16.40;99.90
39033;DHT22;24794;51.982;5.878;2023-08-01T05:32:48;16.40;99.90
39033;DHT22;24794;51.982;5.878;2023-08-01T05:33:49;16.40;99.90
39033;DHT22;24794;51.982;5.878;2023-08-01T05:34:49;16.50;99.90
39033;DHT22;24794;51.982;5.878;2023-08-01T05:35:50;16.50;99.90
39033;DHT22;24794;51.982;5.878;2023-08-01T05:36:50;16.50;99.90
39033;DHT22;24794;51.982;5.878;2023-08-01T05:37:51;16.50;99.90
39033;DHT22;24794;51.982;5.878;2023-08-01T05:38:51;16.50;99.90
39033;DHT22;24794;51.982;5.878;2023-08-01T05:39:52;16.50;99.90
39033;DHT22;24794;51.982;5.878;2023-08-01T05:40:52;16.50;99.90
39033;DHT22;24794;51.982;5.878;2023-08-01T05:41:53;16.50;99.90
39033;DHT22;24794;51.982;5.878;2023-08-01T05:42:53;16.50;99.90
39033;DHT22;24794;51.982;5.878;2023-08-01T05:43:54;16.50;99.90
39033;DHT22;24794;51.982;5.878;2023-08-01T05:44:55;16.50;99.90
39033;DHT22;24794;51.982;5.878;2023-08-01T05:45:55;16.50;99.90
39033;DHT22;24794;51.982;5.878;2023-08-01T05:46:56;16.60;99.90
39033;DHT22;24794;51.982;5.878;2023-08-01T05:47:56;16.60;99.90
39033;DHT22;24794;51.982;5.878;2023-08-01T05:48:57;16.60;99.90
39033;DHT22;24794;51.982;5.878;2023-08-01T05:49:57;16.60;99.90
39033;DHT22;24794;51.982;5.878;2023-08-01T05:50:58;16.60;99.90
39033;DHT22;24794;51.982;5.878;2023-08-01T05:51:58;16.60;99.90
39033;DHT22;24794;51.982;5.878;2023-08-01T05:52:59;16.60;99.90
39033;DHT22;24794;51.982;5.878;2023-08-01T05:53:59;16.60;99.90
39033;DHT22;24794;51.982;5.878;2023-08-01T05:55:00;16.60;99.90
39033;DHT22;24794;51.982;5.878;2023-08-01T05:56:00;16.60;99.90
39033;DHT22;24794;51.982;5.878;2023-08-01T05:57:01;16.70;99.90
39033;DHT22;24794;51.982;5.878;2023-08-01T05:58:01;16.60;99.90
39033;DHT22;24794;51.982;5.878;2023-08-01T05:59:02;16.60;99.90
39033;DHT22;24794;51.982;5.878;2023-08-01T06:00:04;16.70;99.90
39033;DHT22;24794;51.982;5.878;2023-08-01T06:01:05;16.70;99.90
39033;DHT22;24794;51.982;5.878;2023-08-01T06:02:06;16.70;99.90
39033;DHT22;24794;51.982;5.878;2023-08-01T06:03:06;16.70;99.90
39033;DHT22;24794;51.982;5.878;2023-08-01T06:04:07;16.70;99.90
39033;DHT22;24794;51.982;5.878;2023-08-01T06:05:08;16.70;99.90
39033;DHT22;24794;51.982;5.878;2023-08-01T06:06:08;16.70;99.90
39033;DHT22;24794;51.982;5.878;2023-08-01T06:07:09;16.70;99.90
39033;DHT22;24794;51.982;5.878;2023-08-01T06:08:09;16.70;99.90
39033;DHT22;24794;51.982;5.878;2023-08-01T06:09:10;16.80;99.90
39033;DHT22;24794;51.982;5.878;2023-08-01T06:10:10;16.80;99.90
39033;DHT22;24794;51.982;5.878;2023-08-01T06:11:11;16.80;99.90
39033;DHT22;24794;51.982;5.878;2023-08-01T06:12:11;16.80;99.90
39033;DHT22;24794;51.982;5.878;2023-08-01T06:13:12;16.80;99.90
39033;DHT22;24794;51.982;5.878;2023-08-01T06:14:12;16.80;99.90
39033;DHT22;24794;51.982;5.878;2023-08-01T06:15:13;16.80;99.90
39033;DHT22;24794;51.982;5.878;2023-08-01T06:16:13;16.80;99.90
39033;DHT22;24794;51.982;5.878;2023-08-01T06:17:14;16.80;99.90
39033;DHT22;24794;51.982;5.878;2023-08-01T06:18:15;16.80;99.90
39033;DHT22;24794;51.982;5.878;2023-08-01T06:19:16;16.80;99.90
39033;DHT22;24794;51.982;5.878;2023-08-01T06:20:16;16.80;99.90
39033;DHT22;24794;51.982;5.878;2023-08-01T06:21:17;16.80;99.90
39033;DHT22;24794;51.982;5.878;2023-08-01T06:22:18;16.80;99.90
39033;DHT22;24794;51.982;5.878;2023-08-01T06:23:19;16.80;99.90